createdAt,value
2019-05-16T00:01:30.027Z,2.52
2019-05-16T00:03:59.764Z,2.25
2019-05-16T00:06:29.356Z,2.80
2019-05-16T00:08:58.978Z,2.62
2019-05-16T00:11:28.710Z,2.60
2019-05-16T00:13:58.296Z,3.33
2019-05-16T00:16:28.844Z,2.52
2019-05-16T00:18:58.450Z,3.00
2019-05-16T00:21:28.315Z,2.98
2019-05-16T00:23:58.694Z,2.83
2019-05-16T00:26:28.408Z,2.70
2019-05-16T00:28:58.884Z,2.95
2019-05-16T00:31:28.809Z,3.02
2019-05-16T00:33:58.643Z,3.05
2019-05-16T00:36:28.228Z,3.50
2019-05-16T00:38:58.092Z,3.30
2019-05-16T00:41:28.308Z,2.95
2019-05-16T00:43:58.055Z,2.92
2019-05-16T00:46:28.012Z,3.10
2019-05-16T00:48:58.962Z,2.92
2019-05-16T00:51:28.966Z,2.92
2019-05-16T00:53:58.950Z,3.35
2019-05-16T00:56:31.511Z,2.60
2019-05-16T00:59:02.142Z,3.02
2019-05-16T01:01:31.755Z,3.02
2019-05-16T01:04:01.357Z,2.80
2019-05-16T01:06:31.102Z,3.22
2019-05-16T01:09:00.718Z,3.30
2019-05-16T01:11:30.559Z,3.55
2019-05-16T01:14:00.169Z,3.37
2019-05-16T01:16:29.776Z,2.70
2019-05-16T01:18:59.391Z,2.87
2019-05-16T01:21:28.990Z,3.00
2019-05-16T01:23:58.722Z,2.85
2019-05-16T01:26:28.650Z,2.27
2019-05-16T01:28:58.335Z,3.15
2019-05-16T01:31:28.119Z,2.47
2019-05-16T01:33:58.333Z,2.67
2019-05-16T01:36:36.832Z,2.33
2019-05-16T01:38:59.675Z,3.02
2019-05-16T01:41:29.333Z,3.10
2019-05-16T01:43:58.940Z,2.98
2019-05-16T01:46:28.632Z,3.08
2019-05-16T01:48:58.224Z,3.33
2019-05-16T01:51:28.838Z,3.15
2019-05-16T01:54:01.085Z,3.10
2019-05-16T01:56:30.698Z,4.20
2019-05-16T01:59:00.289Z,3.00
2019-05-16T02:01:29.895Z,3.22
2019-05-16T02:10:18.099Z,2.95
2019-05-16T02:12:43.315Z,2.80
2019-05-16T02:15:14.784Z,2.98
2019-05-16T02:17:44.375Z,2.90
2019-05-16T02:20:14.279Z,2.55
2019-05-16T02:22:43.959Z,2.92
2019-05-16T02:25:14.003Z,2.58
2019-05-16T02:27:43.872Z,2.80
2019-05-16T02:30:14.493Z,3.10
2019-05-16T02:32:44.345Z,2.85
2019-05-16T02:35:14.597Z,3.02
2019-05-16T02:37:44.178Z,2.90
2019-05-16T02:40:17.108Z,3.12
2019-05-16T02:45:16.533Z,2.70
2019-05-16T02:47:46.137Z,2.70
2019-05-16T02:50:16.397Z,2.52
2019-05-16T02:52:46.003Z,3.02
2019-05-16T02:55:15.692Z,2.80
2019-05-16T02:57:45.406Z,2.58
2019-05-16T03:00:15.494Z,1.90
2019-05-16T03:02:45.295Z,2.20
2019-05-16T03:05:15.042Z,2.83
2019-05-16T03:07:47.494Z,2.42
2019-05-16T03:10:20.121Z,2.47
2019-05-16T03:12:51.875Z,2.40
2019-05-16T03:15:21.972Z,2.00
2019-05-16T03:17:58.789Z,2.60
2019-05-16T03:20:31.356Z,1.90
2019-05-16T03:23:02.282Z,2.00
2019-05-16T03:25:31.690Z,2.20
2019-05-16T03:28:02.205Z,2.60
2019-05-16T03:30:35.151Z,2.55
2019-05-16T03:33:05.640Z,2.50
2019-05-16T03:35:35.163Z,2.25
2019-05-16T03:38:05.946Z,2.40
2019-05-16T03:40:37.572Z,2.42
2019-05-16T03:43:07.155Z,2.20
2019-05-16T03:45:37.046Z,2.25
2019-05-16T03:48:06.626Z,2.10
2019-05-16T03:50:36.220Z,2.40
2019-05-16T03:53:05.857Z,2.33
2019-05-16T03:55:35.428Z,2.20
2019-05-16T03:58:05.131Z,2.33
2019-05-16T04:00:52.292Z,2.17
2019-05-16T04:03:22.176Z,2.00
2019-05-16T04:05:52.999Z,2.60
2019-05-16T04:08:25.018Z,2.25
2019-05-16T04:10:54.303Z,2.42
2019-05-16T04:13:24.261Z,2.20
2019-05-16T04:15:53.879Z,2.25
2019-05-16T04:18:23.469Z,2.40
2019-05-16T04:20:53.135Z,2.25
2019-05-16T04:23:22.769Z,2.65
2019-05-16T04:25:53.030Z,2.20
2019-05-16T04:28:24.626Z,2.00
2019-05-16T04:30:54.226Z,2.42
2019-05-16T04:33:23.838Z,1.92
2019-05-16T04:35:55.060Z,2.30
2019-05-16T04:38:40.807Z,1.95
2019-05-16T04:40:55.986Z,1.72
2019-05-16T04:43:25.675Z,2.30
2019-05-16T04:45:55.287Z,2.25
2019-05-16T04:48:24.876Z,2.05
2019-05-16T04:50:54.486Z,2.30
2019-05-16T04:53:24.097Z,2.05
2019-05-16T04:55:53.794Z,1.42
2019-05-16T04:58:24.116Z,2.05
2019-05-16T05:00:53.763Z,2.02
2019-05-16T05:03:24.043Z,2.02
2019-05-16T05:05:53.726Z,2.02
2019-05-16T05:08:23.334Z,1.77
2019-05-16T05:10:52.924Z,1.60
2019-05-16T05:13:22.830Z,1.80
2019-05-16T05:15:52.554Z,1.67
2019-05-16T05:18:22.439Z,1.47
2019-05-16T05:20:52.743Z,1.80
2019-05-16T05:23:23.088Z,2.12
2019-05-16T05:25:52.709Z,2.12
2019-05-16T05:28:22.312Z,1.67
2019-05-16T05:30:51.931Z,1.65
2019-05-16T05:33:21.614Z,2.17
2019-05-16T05:35:51.338Z,2.00
2019-05-16T05:38:21.836Z,1.80
2019-05-16T05:40:51.898Z,1.52
2019-05-16T05:43:22.028Z,1.87
2019-05-16T05:45:51.856Z,1.72
2019-05-16T05:48:22.155Z,1.90
2019-05-16T05:50:52.553Z,1.67
2019-05-16T05:53:22.142Z,1.77
2019-05-16T05:55:52.194Z,1.55
2019-05-16T05:58:22.300Z,1.67
2019-05-16T06:00:52.590Z,1.60
2019-05-16T06:03:23.280Z,1.60
2019-05-16T06:05:53.068Z,2.15
2019-05-16T06:08:22.712Z,1.80
2019-05-16T06:10:52.305Z,1.80
2019-05-16T06:13:21.916Z,1.95
2019-05-16T06:15:51.538Z,2.00
2019-05-16T06:18:21.153Z,1.82
2019-05-16T06:20:51.573Z,1.90
2019-05-16T06:23:21.573Z,1.82
2019-05-16T06:25:51.250Z,1.75
2019-05-16T06:28:21.376Z,1.75
2019-05-16T06:30:51.810Z,1.42
2019-05-16T06:33:21.703Z,1.07
2019-05-16T06:35:51.718Z,1.60
2019-05-16T06:38:21.534Z,1.65
2019-05-16T06:40:52.536Z,1.80
2019-05-16T06:43:22.673Z,1.50
2019-05-16T06:45:52.283Z,1.65
2019-05-16T06:48:21.888Z,1.70
2019-05-16T06:50:52.020Z,1.90
2019-05-16T06:53:21.728Z,2.08
2019-05-16T06:55:51.345Z,1.52
2019-05-16T06:58:22.229Z,2.27
2019-05-16T07:00:52.874Z,1.90
2019-05-16T07:03:22.691Z,2.00
2019-05-16T07:05:52.283Z,1.67
2019-05-16T07:08:22.524Z,1.50
2019-05-16T07:10:52.128Z,1.80
2019-05-16T07:13:21.859Z,1.98
2019-05-16T07:15:51.458Z,1.80
2019-05-16T07:18:21.408Z,1.52
2019-05-16T07:20:51.516Z,1.62
2019-05-16T07:23:21.449Z,1.92
2019-05-16T07:25:51.369Z,2.00
2019-05-16T07:28:21.365Z,1.72
2019-05-16T07:30:53.200Z,1.90
2019-05-16T07:33:23.077Z,1.85
2019-05-16T07:35:52.822Z,2.00
2019-05-16T07:38:22.710Z,1.72
2019-05-16T07:40:53.619Z,2.35
2019-05-16T07:43:23.630Z,1.57
2019-05-16T07:45:53.966Z,1.80
2019-05-16T07:48:23.909Z,1.77
2019-05-16T07:50:55.514Z,1.50
2019-05-16T07:53:25.727Z,1.82
2019-05-16T07:55:55.978Z,1.65
2019-05-16T07:58:27.330Z,1.55
2019-05-16T08:01:03.183Z,1.70
2019-05-16T08:03:30.362Z,1.60
2019-05-16T08:06:01.680Z,1.80
2019-05-16T08:08:32.056Z,1.60
2019-05-16T08:11:02.043Z,1.00
2019-05-16T08:13:32.074Z,1.42
2019-05-16T08:16:02.417Z,1.30
2019-05-16T08:18:32.032Z,1.60
2019-05-16T08:21:01.691Z,1.55
2019-05-16T08:23:31.367Z,1.17
2019-05-16T08:26:01.443Z,1.00
2019-05-16T08:28:31.649Z,1.17
2019-05-16T08:31:01.319Z,1.40
2019-05-16T08:33:32.266Z,1.20
2019-05-16T08:36:07.922Z,1.10
2019-05-16T08:38:33.465Z,1.10
2019-05-16T08:43:34.535Z,1.27
2019-05-16T08:46:04.245Z,0.80
2019-05-16T08:48:33.816Z,1.00
2019-05-16T08:51:03.458Z,1.17
2019-05-16T08:53:33.310Z,1.20
2019-05-16T08:56:03.032Z,1.12
2019-05-16T09:01:04.103Z,0.93
2019-05-16T09:03:34.212Z,1.22
2019-05-16T09:06:04.210Z,1.05
2019-05-16T09:08:33.827Z,0.98
2019-05-16T09:10:21.220Z,1.00
2019-05-16T09:10:25.130Z,0.93
2019-05-16T09:11:26.957Z,1.20
2019-05-16T09:13:37.086Z,1.22
2019-05-16T09:16:07.751Z,1.10
2019-05-16T09:18:44.747Z,1.05
2019-05-16T09:21:08.926Z,1.45
2019-05-16T09:23:38.636Z,0.90
2019-05-16T09:26:08.392Z,0.98
2019-05-16T09:28:39.086Z,1.12
2019-05-16T09:31:09.376Z,1.10
2019-05-16T09:33:38.927Z,1.10
2019-05-16T09:36:08.621Z,1.20
2019-05-16T09:38:38.544Z,1.32
2019-05-16T09:41:08.330Z,1.15
2019-05-16T09:43:42.800Z,1.17
2019-05-16T09:46:09.464Z,1.10
2019-05-16T09:48:39.096Z,1.07
2019-05-16T09:51:08.694Z,1.40
2019-05-16T09:53:38.302Z,1.10
2019-05-16T09:56:08.063Z,1.17
2019-05-16T09:58:37.707Z,0.80
2019-05-16T10:01:08.220Z,0.88
2019-05-16T10:03:37.878Z,1.20
2019-05-16T10:06:08.166Z,1.15
2019-05-16T10:08:37.903Z,1.30
2019-05-16T10:11:07.745Z,1.20
2019-05-16T10:13:37.811Z,2.67
2019-05-16T10:16:07.565Z,1.00
2019-05-16T10:18:37.214Z,1.32
2019-05-16T10:21:08.089Z,1.20
2019-05-16T10:23:37.894Z,1.40
2019-05-16T10:26:07.719Z,1.25
2019-05-16T10:28:38.451Z,1.10
2019-05-16T10:31:08.284Z,1.10
2019-05-16T10:33:39.048Z,1.07
2019-05-16T10:36:08.876Z,0.98
2019-05-16T10:38:38.574Z,1.00
2019-05-16T10:41:08.186Z,1.10
2019-05-16T10:43:37.778Z,1.00
2019-05-16T10:46:07.465Z,1.20
2019-05-16T10:48:37.750Z,1.10
2019-05-16T10:51:07.927Z,1.10
2019-05-16T10:54:00.451Z,1.22
2019-05-16T10:56:09.125Z,1.25
2019-05-16T10:58:59.623Z,1.20
2019-05-16T11:01:24.523Z,1.10
2019-05-16T11:03:41.537Z,1.40
2019-05-16T11:06:24.655Z,1.12
2019-05-16T11:08:42.515Z,1.12
2019-05-16T11:11:12.172Z,0.95
2019-05-16T11:13:41.780Z,1.40
2019-05-16T11:16:11.546Z,1.30
2019-05-16T11:18:41.158Z,1.35
2019-05-16T11:21:10.753Z,1.12
2019-05-16T11:23:40.347Z,0.98
2019-05-16T11:26:10.284Z,1.37
2019-05-16T11:28:40.630Z,1.42
2019-05-16T11:31:10.226Z,1.20
2019-05-16T11:33:40.201Z,1.20
2019-05-16T11:36:12.835Z,1.20
2019-05-16T11:38:41.199Z,1.30
2019-05-16T11:41:10.873Z,1.25
2019-05-16T11:43:40.458Z,1.30
2019-05-16T11:46:10.073Z,1.30
2019-05-16T11:48:39.688Z,1.17
2019-05-16T11:51:09.370Z,1.30
2019-05-16T11:53:39.105Z,1.32
2019-05-16T11:56:08.745Z,1.37
2019-05-16T11:58:39.002Z,1.57
2019-05-16T12:01:08.595Z,1.50
2019-05-16T12:03:38.192Z,1.70
2019-05-16T12:06:10.608Z,1.45
2019-05-16T12:08:39.362Z,1.65
2019-05-16T12:11:09.327Z,1.37
2019-05-16T12:13:39.185Z,1.70
2019-05-16T12:16:08.814Z,1.20
2019-05-16T12:18:38.489Z,1.30
2019-05-16T12:21:08.098Z,1.50
2019-05-16T12:23:37.813Z,1.30
2019-05-16T12:26:07.987Z,1.30
2019-05-16T12:28:37.682Z,1.52
2019-05-16T12:31:07.432Z,1.25
2019-05-16T12:33:37.873Z,1.35
2019-05-16T12:36:07.855Z,1.47
2019-05-16T12:38:38.176Z,1.30
2019-05-16T12:41:08.197Z,1.40
2019-05-16T12:43:48.693Z,1.35
2019-05-16T12:46:09.379Z,1.37
2019-05-16T12:48:38.989Z,1.50
2019-05-16T12:51:09.154Z,1.47
2019-05-16T12:53:38.932Z,1.30
2019-05-16T12:56:08.603Z,1.30
2019-05-16T12:58:41.845Z,1.70
2019-05-16T13:01:09.619Z,1.80
2019-05-16T13:03:39.459Z,1.37
2019-05-16T13:06:09.104Z,1.35
2019-05-16T13:08:38.722Z,1.72
2019-05-16T13:11:08.607Z,1.40
2019-05-16T13:13:38.363Z,1.60
2019-05-16T13:16:08.358Z,1.62
2019-05-16T13:18:38.676Z,1.62
2019-05-16T13:21:08.585Z,1.70
2019-05-16T13:23:39.387Z,2.10
2019-05-16T13:26:09.486Z,1.98
2019-05-16T13:28:39.741Z,2.08
2019-05-16T13:31:09.588Z,2.20
2019-05-16T13:33:39.562Z,1.98
2019-05-16T13:36:09.562Z,1.55
2019-05-16T13:38:39.513Z,1.65
2019-05-16T13:41:09.532Z,2.25
2019-05-16T13:43:39.260Z,1.92
2019-05-16T13:46:09.708Z,2.00
2019-05-16T13:48:39.727Z,1.70
2019-05-16T13:51:15.145Z,2.20
2019-05-16T13:53:41.397Z,1.98
2019-05-16T13:56:13.567Z,2.05
2019-05-16T13:58:47.140Z,2.30
2019-05-16T14:01:21.811Z,1.92
2019-05-16T14:03:50.324Z,2.00
2019-05-16T14:06:20.316Z,1.92
2019-05-16T14:08:50.165Z,1.90
2019-05-16T14:11:19.872Z,2.20
2019-05-16T14:13:51.381Z,2.05
2019-05-16T14:16:21.068Z,1.70
2019-05-16T14:18:50.682Z,1.90
2019-05-16T14:21:20.327Z,1.90
2019-05-16T14:23:53.283Z,2.22
2019-05-16T14:26:21.285Z,1.75
2019-05-16T14:28:50.909Z,1.80
2019-05-16T14:31:20.588Z,1.70
2019-05-16T14:33:50.189Z,2.00
2019-05-16T14:36:19.943Z,1.70
2019-05-16T14:38:49.528Z,1.80
2019-05-16T14:41:19.133Z,2.10
2019-05-16T14:43:48.911Z,2.00
2019-05-16T14:46:18.672Z,1.90
2019-05-16T14:48:48.343Z,1.80
2019-05-16T14:51:18.306Z,1.47
2019-05-16T14:53:47.960Z,1.82
2019-05-16T14:56:17.587Z,2.10
2019-05-16T14:58:48.443Z,2.02
2019-05-16T15:01:18.519Z,2.00
2019-05-16T15:03:48.349Z,2.55
2019-05-16T15:06:18.495Z,2.35
2019-05-16T15:08:48.641Z,2.10
2019-05-16T15:11:19.892Z,2.52
2019-05-16T15:13:49.878Z,2.25
2019-05-16T15:16:20.139Z,2.65
2019-05-16T15:18:50.087Z,2.75
2019-05-16T15:21:21.608Z,2.62
2019-05-16T15:23:51.808Z,2.58
2019-05-16T15:26:21.796Z,3.02
2019-05-16T15:28:52.039Z,3.10
2019-05-16T15:31:22.147Z,2.62
2019-05-16T15:33:52.273Z,2.30
2019-05-16T15:36:22.484Z,2.58
2019-05-16T15:38:52.533Z,2.67
2019-05-16T15:41:22.660Z,2.77
2019-05-16T15:43:52.579Z,2.87
2019-05-16T15:46:22.672Z,2.60
2019-05-16T15:48:53.061Z,2.52
2019-05-16T15:51:24.502Z,2.47
2019-05-16T15:53:57.185Z,2.10
2019-05-16T15:56:27.777Z,2.67
2019-05-16T15:58:57.958Z,2.80
2019-05-16T16:01:27.899Z,2.45
2019-05-16T16:03:59.165Z,2.95
2019-05-16T16:06:28.771Z,2.40
2019-05-16T16:08:58.462Z,2.90
2019-05-16T16:11:28.080Z,2.60
2019-05-16T16:13:57.846Z,2.77
2019-05-16T16:16:27.450Z,2.50
2019-05-16T16:18:57.493Z,2.80
2019-05-16T16:21:27.577Z,2.35
2019-05-16T16:23:57.360Z,2.70
2019-05-16T16:26:27.011Z,2.30
2019-05-16T16:28:56.625Z,2.50
2019-05-16T16:31:27.423Z,2.37
2019-05-16T16:33:57.322Z,2.30
2019-05-16T16:36:27.539Z,2.22
2019-05-16T16:38:57.272Z,2.22
2019-05-16T16:41:27.677Z,2.45
2019-05-16T16:43:57.364Z,2.37
2019-05-16T16:46:27.195Z,2.37
2019-05-16T16:48:56.984Z,2.20
2019-05-16T16:51:27.002Z,2.58
2019-05-16T16:53:57.079Z,2.27
2019-05-16T16:56:27.422Z,2.10
2019-05-16T16:58:57.183Z,2.17
2019-05-16T17:01:28.044Z,2.75
2019-05-16T17:03:57.652Z,2.60
2019-05-16T17:06:27.328Z,2.15
2019-05-16T17:08:57.037Z,2.27
2019-05-16T17:11:26.617Z,2.12
2019-05-16T17:13:56.627Z,2.40
2019-05-16T17:16:29.051Z,2.12
2019-05-16T17:18:58.151Z,2.10
2019-05-16T17:21:27.801Z,2.40
2019-05-16T17:23:57.393Z,2.00
2019-05-16T17:26:27.620Z,2.30
2019-05-16T17:28:57.291Z,1.75
2019-05-16T17:31:26.891Z,2.10
2019-05-16T17:33:57.760Z,2.35
2019-05-16T17:36:27.503Z,1.75
2019-05-16T17:38:57.210Z,2.22
2019-05-16T17:41:27.301Z,2.95
2019-05-16T17:43:56.976Z,2.50
2019-05-16T17:46:34.837Z,2.25
2019-05-16T17:48:57.938Z,2.55
2019-05-16T17:51:27.614Z,2.33
2019-05-16T17:53:57.382Z,2.52
2019-05-16T17:56:26.997Z,2.85
2019-05-16T17:58:56.996Z,2.52
2019-05-16T18:01:27.405Z,2.70
2019-05-16T18:03:57.440Z,2.40
2019-05-16T18:06:27.240Z,2.37
2019-05-16T18:08:57.234Z,2.12
2019-05-16T18:11:27.310Z,2.35
2019-05-16T18:13:57.149Z,2.90
2019-05-16T18:16:26.798Z,2.80
2019-05-16T18:18:57.509Z,2.90
2019-05-16T18:21:27.571Z,3.58
2019-05-16T18:23:57.365Z,3.12
2019-05-16T18:26:27.029Z,2.70
2019-05-16T18:28:56.693Z,2.50
2019-05-16T18:31:26.649Z,3.65
2019-05-16T18:33:56.647Z,4.30
2019-05-16T18:36:26.615Z,2.70
2019-05-16T18:38:57.470Z,3.33
2019-05-16T18:41:27.320Z,3.00
2019-05-16T18:43:57.155Z,3.12
2019-05-16T18:46:26.978Z,3.22
2019-05-16T18:48:56.719Z,3.08
2019-05-16T18:51:26.527Z,2.80
2019-05-16T18:53:57.048Z,3.47
2019-05-16T18:56:27.163Z,2.87
2019-05-16T18:58:57.384Z,3.22
2019-05-16T19:01:27.036Z,2.95
2019-05-16T19:03:57.649Z,2.62
2019-05-16T19:06:27.676Z,2.65
2019-05-16T19:08:58.434Z,2.65
2019-05-16T19:11:28.716Z,2.33
2019-05-16T19:13:59.439Z,2.85
2019-05-16T19:16:29.107Z,2.08
2019-05-16T19:18:58.701Z,2.45
2019-05-16T19:21:28.750Z,2.45
2019-05-16T19:23:58.343Z,1.90
2019-05-16T19:26:28.026Z,1.87
2019-05-16T19:28:57.712Z,1.52
2019-05-16T19:31:28.131Z,1.60
2019-05-16T19:33:58.497Z,1.40
2019-05-16T19:36:28.197Z,1.87
2019-05-16T19:38:57.949Z,2.12
2019-05-16T19:41:27.592Z,1.20
2019-05-16T19:43:57.305Z,1.62
2019-05-16T19:46:27.253Z,1.70
2019-05-16T19:48:57.125Z,1.77
2019-05-16T19:51:27.028Z,1.70
2019-05-16T19:53:56.764Z,1.60
2019-05-16T19:56:26.967Z,1.80
2019-05-16T19:58:57.199Z,1.75
2019-05-16T20:01:27.385Z,1.65
2019-05-16T20:03:57.110Z,1.70
2019-05-16T20:06:27.501Z,1.30
2019-05-16T20:08:57.194Z,1.22
2019-05-16T20:11:27.677Z,1.85
2019-05-16T20:13:57.430Z,1.62
2019-05-16T20:16:27.384Z,1.57
2019-05-16T20:18:57.107Z,1.45
2019-05-16T20:21:27.490Z,1.45
2019-05-16T20:23:57.206Z,1.50
2019-05-16T20:26:27.363Z,1.40
2019-05-16T20:28:59.570Z,1.45
2019-05-16T20:31:28.464Z,1.70
2019-05-16T20:33:58.153Z,1.55
2019-05-16T20:36:27.772Z,1.40
2019-05-16T20:39:00.421Z,1.82
2019-05-16T20:41:30.035Z,1.65
2019-05-16T20:44:00.391Z,2.00
2019-05-16T20:46:30.253Z,1.57
2019-05-16T20:49:00.148Z,1.37
2019-05-16T20:51:29.766Z,2.20
2019-05-16T20:53:59.355Z,1.72
2019-05-16T20:56:28.956Z,1.52
2019-05-16T20:58:58.572Z,1.50
2019-05-16T21:01:28.180Z,1.50
2019-05-16T21:03:57.802Z,1.60
2019-05-16T21:06:27.726Z,1.55
2019-05-16T21:08:57.602Z,1.65
2019-05-16T21:11:27.197Z,1.70
2019-05-16T21:13:56.794Z,1.85
2019-05-16T21:16:27.017Z,1.85
2019-05-16T21:18:57.457Z,1.82
2019-05-16T21:21:27.459Z,1.80
2019-05-16T21:23:57.132Z,1.82
2019-05-16T21:26:26.762Z,1.70
2019-05-16T21:28:56.946Z,2.00
2019-05-16T21:31:27.516Z,1.22
2019-05-16T21:33:57.321Z,2.02
2019-05-16T21:36:27.565Z,2.08
2019-05-16T21:38:57.502Z,2.20
2019-05-16T21:41:27.228Z,1.90
2019-05-16T21:43:57.116Z,1.87
2019-05-16T21:46:27.258Z,2.08
2019-05-16T21:48:56.999Z,2.00
2019-05-16T21:51:26.883Z,1.95
2019-05-16T21:53:56.586Z,1.77
2019-05-16T21:56:26.684Z,1.67
2019-05-16T21:58:57.451Z,1.87
2019-05-16T22:01:27.155Z,1.60
2019-05-16T22:03:57.126Z,2.17
2019-05-16T22:06:26.894Z,1.98
2019-05-16T22:08:57.383Z,1.85
2019-05-16T22:11:27.062Z,1.77
2019-05-16T22:13:57.093Z,1.92
2019-05-16T22:16:27.829Z,1.67
2019-05-16T22:18:57.707Z,1.40
2019-05-16T22:21:27.314Z,1.67
2019-05-16T22:23:57.297Z,1.67
2019-05-16T22:26:27.161Z,1.98
2019-05-16T22:28:57.483Z,1.50
2019-05-16T22:31:27.221Z,1.70
2019-05-16T22:33:58.405Z,1.50
2019-05-16T22:36:28.183Z,1.90
2019-05-16T22:38:59.645Z,1.72
2019-05-16T22:41:29.114Z,1.67
2019-05-16T22:43:58.698Z,1.52
2019-05-16T22:46:28.671Z,1.62
2019-05-16T22:48:58.293Z,1.52
2019-05-16T22:51:27.875Z,1.77
2019-05-16T22:53:58.736Z,1.40
2019-05-16T22:56:28.752Z,1.77
2019-05-16T22:58:58.357Z,1.70
2019-05-16T23:01:28.327Z,1.75
2019-05-16T23:03:57.922Z,2.05
2019-05-16T23:06:27.786Z,2.42
2019-05-16T23:08:57.391Z,1.72
2019-05-16T23:11:27.137Z,1.72
2019-05-16T23:13:56.919Z,1.65
2019-05-16T23:16:26.847Z,1.90
2019-05-16T23:18:57.111Z,1.50
2019-05-16T23:21:27.693Z,1.77
2019-05-16T23:23:57.339Z,1.60
2019-05-16T23:26:32.605Z,1.90
2019-05-16T23:29:02.191Z,1.82
2019-05-16T23:31:31.797Z,1.90
2019-05-16T23:34:01.394Z,2.00
2019-05-16T23:36:31.084Z,1.98
2019-05-16T23:39:00.945Z,2.47
2019-05-16T23:41:30.909Z,2.00
2019-05-16T23:44:00.502Z,1.52
2019-05-16T23:46:30.122Z,2.35
2019-05-16T23:48:59.724Z,2.25
2019-05-16T23:51:29.390Z,2.33
2019-05-16T23:53:59.339Z,2.20
2019-05-16T23:56:29.091Z,2.42
2019-05-16T23:58:59.069Z,2.02
